Time;durP1;ratioP1;P1;durP2;ratioP2;P2;SDS_P1;SDS_P2;PMS_P1;PMS_P2;Temp;Humidity;BMP_temperature;BMP_pressure;BME280_temperature;BME280_humidity;BME280_pressure;Samples;Min_cycle;Max_cycle;Signal;HPM_P1;HPM_P2
2021/05/21 00:01:56;;;;;;;0.47;0.47;;;13.60;99.90;;;;;;4462363;32;20126;-65
2021/05/21 00:04:22;;;;;;;0.20;0.20;;;13.60;99.90;;;;;;4462250;32;20060;-64
2021/05/21 00:06:47;;;;;;;0.30;0.30;;;13.60;99.90;;;;;;4461318;32;20076;-64
2021/05/21 00:09:14;;;;;;;0.50;0.45;;;13.50;99.90;;;;;;4447577;32;20376;-65
2021/05/21 00:11:40;;;;;;;1.00;0.73;;;13.50;99.90;;;;;;4445454;32;20066;-63
2021/05/21 00:14:05;;;;;;;0.30;0.30;;;13.60;99.90;;;;;;4447419;32;20389;-64
2021/05/21 00:16:31;;;;;;;0.50;0.50;;;13.60;99.90;;;;;;4447121;32;20088;-64
2021/05/21 00:18:56;;;;;;;0.40;0.35;;;13.60;99.90;;;;;;4448238;32;20499;-65
2021/05/21 00:21:22;;;;;;;0.35;0.35;;;13.60;99.90;;;;;;4446833;32;20118;-64
2021/05/21 00:23:48;;;;;;;0.30;0.30;;;13.30;99.90;;;;;;4445238;32;20400;-64
2021/05/21 00:26:13;;;;;;;1.20;0.70;;;13.20;99.90;;;;;;4446204;32;20072;-64
2021/05/21 00:28:39;;;;;;;0.50;0.50;;;13.20;99.90;;;;;;4446797;32;20379;-64
2021/05/21 00:31:04;;;;;;;0.30;0.30;;;13.40;99.90;;;;;;4445700;32;20065;-64
2021/05/21 00:33:30;;;;;;;0.22;0.22;;;13.50;99.90;;;;;;4446036;32;20073;-64
2021/05/21 00:35:55;;;;;;;0.47;0.47;;;13.30;99.90;;;;;;4444417;32;20414;-64
2021/05/21 00:38:21;;;;;;;0.50;0.50;;;13.20;99.90;;;;;;4446662;32;20077;-64
2021/05/21 00:40:46;;;;;;;0.35;0.35;;;13.10;99.90;;;;;;4445668;32;20444;-64
2021/05/21 00:43:15;;;;;;;0.30;0.30;;;13.10;99.90;;;;;;4449120;32;20077;-65
2021/05/21 00:45:40;;;;;;;0.40;0.40;;;13.10;99.90;;;;;;4448574;32;20118;-64
2021/05/21 00:48:06;;;;;;;0.40;0.40;;;13.20;99.90;;;;;;4461596;32;20068;-63
2021/05/21 00:50:31;;;;;;;0.30;0.30;;;13.20;99.90;;;;;;4461953;32;20073;-64
2021/05/21 00:52:58;;;;;;;0.85;0.40;;;13.20;99.90;;;;;;4461237;32;20068;-64
2021/05/21 00:55:24;;;;;;;0.20;0.20;;;13.20;99.90;;;;;;4448263;32;20081;-64
2021/05/21 00:57:50;;;;;;;0.80;0.60;;;13.20;99.90;;;;;;4461093;32;20416;-64
2021/05/21 01:00:15;;;;;;;0.40;0.40;;;13.00;99.90;;;;;;4446844;32;20064;-64
2021/05/21 01:02:41;;;;;;;0.60;0.60;;;13.00;99.90;;;;;;4462653;32;20073;-64
2021/05/21 01:05:07;;;;;;;0.35;0.35;;;12.90;99.90;;;;;;4450873;32;20081;-65
2021/05/21 01:07:33;;;;;;;0.40;0.40;;;12.90;99.90;;;;;;4446317;32;20506;-64
2021/05/21 01:09:58;;;;;;;0.30;0.30;;;12.90;99.90;;;;;;4445301;32;20084;-64
2021/05/21 01:12:24;;;;;;;0.22;0.22;;;13.00;99.90;;;;;;4446116;32;20068;-65
2021/05/21 01:14:51;;;;;;;0.43;0.30;;;13.00;99.90;;;;;;4447076;32;20069;-64
2021/05/21 01:17:17;;;;;;;0.40;0.40;;;12.90;99.90;;;;;;4444641;32;20081;-64
2021/05/21 01:19:42;;;;;;;0.30;0.30;;;12.90;99.90;;;;;;4446098;32;20066;-64
2021/05/21 01:22:09;;;;;;;0.40;0.40;;;12.90;99.90;;;;;;4445712;32;20131;-64
2021/05/21 01:24:35;;;;;;;0.50;0.50;;;12.80;99.90;;;;;;4445286;32;20076;-64
2021/05/21 01:27:02;;;;;;;1.45;0.40;;;12.80;99.90;;;;;;4446126;32;20064;-64
2021/05/21 01:29:28;;;;;;;0.40;0.40;;;12.80;99.90;;;;;;4446435;32;20077;-63
2021/05/21 01:31:54;;;;;;;0.30;0.30;;;12.70;99.90;;;;;;4446134;32;20704;-64
2021/05/21 01:34:19;;;;;;;0.40;0.40;;;12.70;99.90;;;;;;4448116;32;20069;-63
2021/05/21 01:36:47;;;;;;;0.60;0.40;;;12.70;99.90;;;;;;4444979;32;20069;-64
2021/05/21 01:39:13;;;;;;;0.20;0.20;;;12.70;99.90;;;;;;4446584;32;20082;-64
2021/05/21 01:41:39;;;;;;;0.37;0.37;;;12.90;99.90;;;;;;4446577;32;20069;-64
2021/05/21 01:44:08;;;;;;;0.30;0.30;;;12.90;99.90;;;;;;4445282;32;20469;-64
2021/05/21 01:46:34;;;;;;;0.30;0.30;;;12.80;99.90;;;;;;4444745;32;20069;-63
2021/05/21 01:49:00;;;;;;;0.30;0.30;;;12.80;99.90;;;;;;4445355;32;20579;-63
2021/05/21 01:51:27;;;;;;;0.40;0.40;;;12.90;99.90;;;;;;4446229;32;20077;-64
2021/05/21 01:54:07;;;;;;;0.32;0.32;;;12.80;99.90;;;;;;4444805;32;20100;-64
2021/05/21 01:56:33;;;;;;;0.40;0.40;;;12.80;99.90;;;;;;4445663;32;20505;-64
2021/05/21 01:58:58;;;;;;;0.40;0.40;;;12.90;99.90;;;;;;4445113;32;20089;-65
2021/05/21 02:01:24;;;;;;;0.40;0.40;;;12.90;99.90;;;;;;4446542;32;20060;-64
2021/05/21 02:03:49;;;;;;;0.93;0.60;;;13.00;99.90;;;;;;4446682;32;20446;-63
2021/05/21 02:06:15;;;;;;;0.20;0.20;;;13.00;99.90;;;;;;4444783;32;20070;-64
2021/05/21 02:08:40;;;;;;;0.30;0.30;;;12.90;99.90;;;;;;4445566;32;20093;-63
2021/05/21 02:11:05;;;;;;;0.20;0.20;;;12.90;99.90;;;;;;4445498;32;20081;-64
2021/05/21 02:13:31;;;;;;;0.32;0.32;;;13.00;99.90;;;;;;4445562;32;20491;-64
2021/05/21 02:15:56;;;;;;;0.45;0.40;;;13.00;99.90;;;;;;4445826;32;20069;-64
2021/05/21 02:18:22;;;;;;;1.17;0.47;;;13.00;99.90;;;;;;4446168;32;20459;-64
2021/05/21 02:20:47;;;;;;;0.50;0.40;;;12.90;99.90;;;;;;4446332;32;20064;-63
2021/05/21 02:23:13;;;;;;;0.30;0.30;;;12.80;99.90;;;;;;4446097;32;20073;-64
2021/05/21 02:25:39;;;;;;;0.57;0.57;;;12.70;99.90;;;;;;4445603;32;20072;-62
2021/05/21 02:28:04;;;;;;;0.30;0.30;;;12.90;99.90;;;;;;4444336;32;20084;-64
2021/05/21 02:30:30;;;;;;;0.40;0.40;;;12.80;99.90;;;;;;4446628;32;20530;-63
2021/05/21 02:32:55;;;;;;;0.40;0.40;;;12.80;99.90;;;;;;4445436;32;20068;-63
2021/05/21 02:35:22;;;;;;;0.30;0.30;;;12.80;99.90;;;;;;4444884;32;20521;-63
2021/05/21 02:37:48;;;;;;;0.40;0.40;;;12.80;99.90;;;;;;4444893;32;20216;-64
2021/05/21 02:40:14;;;;;;;0.28;0.28;;;12.70;99.90;;;;;;4445689;32;20077;-63
2021/05/21 02:42:39;;;;;;;0.40;0.40;;;12.70;99.90;;;;;;4446945;32;20077;-64
2021/05/21 02:45:06;;;;;;;0.30;0.30;;;12.70;99.90;;;;;;4446013;32;20441;-63
2021/05/21 02:47:32;;;;;;;0.22;0.22;;;12.70;99.90;;;;;;4443222;32;20495;-64
2021/05/21 02:49:58;;;;;;;0.35;0.35;;;12.70;99.90;;;;;;4445288;32;20455;-64
2021/05/21 02:52:25;;;;;;;0.35;0.35;;;12.70;99.90;;;;;;4431856;32;20068;-65
2021/05/21 02:54:50;;;;;;;0.40;0.40;;;12.70;99.90;;;;;;4444111;32;20419;-63
2021/05/21 02:57:16;;;;;;;1.20;0.37;;;12.80;99.90;;;;;;4446116;32;20057;-63
2021/05/21 02:59:41;;;;;;;0.85;0.75;;;12.70;99.90;;;;;;4445281;32;21017;-63
2021/05/21 03:02:06;;;;;;;0.30;0.30;;;12.70;99.90;;;;;;4446131;32;20561;-63
2021/05/21 03:04:32;;;;;;;0.32;0.30;;;12.70;99.90;;;;;;4445512;32;20080;-61
2021/05/21 03:06:57;;;;;;;1.87;0.85;;;12.80;99.90;;;;;;4444568;32;20089;-63
2021/05/21 03:09:23;;;;;;;0.40;0.40;;;12.70;99.90;;;;;;4445552;32;20120;-65
2021/05/21 03:11:48;;;;;;;0.40;0.40;;;12.70;99.90;;;;;;4445449;32;20065;-65
2021/05/21 03:14:14;;;;;;;0.40;0.40;;;12.60;99.90;;;;;;4445289;32;20191;-65
2021/05/21 03:16:39;;;;;;;0.30;0.30;;;12.70;99.90;;;;;;4459514;32;20461;-65
2021/05/21 03:19:05;;;;;;;0.50;0.50;;;12.70;99.90;;;;;;4463271;32;20065;-65
2021/05/21 03:21:30;;;;;;;0.30;0.30;;;12.60;99.90;;;;;;4463970;32;20089;-65
2021/05/21 03:23:56;;;;;;;1.05;0.43;;;12.60;99.90;;;;;;4462196;32;20073;-65
2021/05/21 03:26:21;;;;;;;0.40;0.40;;;12.70;99.90;;;;;;4463519;32;20076;-65
2021/05/21 03:28:47;;;;;;;0.30;0.30;;;12.60;99.90;;;;;;4461799;32;20057;-64
2021/05/21 03:31:12;;;;;;;0.30;0.30;;;12.60;99.90;;;;;;4463680;32;20104;-64
2021/05/21 03:33:38;;;;;;;0.30;0.30;;;12.60;99.90;;;;;;4463413;32;20497;-65
2021/05/21 03:36:04;;;;;;;0.20;0.20;;;12.50;99.90;;;;;;4462112;32;20089;-64
2021/05/21 03:38:30;;;;;;;0.30;0.30;;;12.40;99.90;;;;;;4462246;32;20065;-64
2021/05/21 03:40:55;;;;;;;0.35;0.35;;;12.50;99.90;;;;;;4448719;32;20080;-64
2021/05/21 03:43:21;;;;;;;14.80;0.77;;;12.50;99.90;;;;;;4445628;32;20065;-65
2021/05/21 03:45:47;;;;;;;0.30;0.30;;;12.50;99.90;;;;;;4447593;32;20068;-65
2021/05/21 03:48:13;;;;;;;0.30;0.30;;;12.70;99.90;;;;;;4445022;32;20427;-65
2021/05/21 03:50:39;;;;;;;0.40;0.40;;;12.60;99.90;;;;;;4445861;32;20375;-63
2021/05/21 03:53:05;;;;;;;1.27;1.00;;;12.50;99.90;;;;;;4446482;32;20061;-64
2021/05/21 03:55:31;;;;;;;0.30;0.30;;;12.50;99.90;;;;;;4420172;32;20089;-65
2021/05/21 03:57:57;;;;;;;0.40;0.40;;;12.60;99.90;;;;;;4447312;32;20400;-65
2021/05/21 04:00:23;;;;;;;0.50;0.50;;;12.60;99.90;;;;;;4446898;32;20525;-65
2021/05/21 04:02:50;;;;;;;0.40;0.40;;;12.60;99.90;;;;;;4445168;32;20147;-65
2021/05/21 04:05:16;;;;;;;0.30;0.30;;;12.50;99.90;;;;;;4432494;32;20065;-65
2021/05/21 04:07:42;;;;;;;3.10;0.40;;;12.40;99.90;;;;;;4447603;32;20416;-65
2021/05/21 04:10:08;;;;;;;6.22;1.67;;;12.30;99.90;;;;;;4445814;32;20065;-65
2021/05/21 04:12:34;;;;;;;0.80;0.50;;;12.30;99.90;;;;;;4446793;32;20119;-64
2021/05/21 04:14:59;;;;;;;0.20;0.20;;;12.20;99.90;;;;;;4461746;32;20064;-64
2021/05/21 04:17:25;;;;;;;0.55;0.55;;;12.30;99.90;;;;;;4461559;32;20080;-64
2021/05/21 04:19:51;;;;;;;0.45;0.45;;;12.30;99.90;;;;;;4462542;32;20067;-63
2021/05/21 04:22:16;;;;;;;0.30;0.30;;;12.30;99.90;;;;;;4441173;32;20072;-64
2021/05/21 04:24:42;;;;;;;0.70;0.70;;;12.40;99.90;;;;;;4427869;32;20074;-64
2021/05/21 04:27:09;;;;;;;0.10;0.10;;;12.40;99.90;;;;;;4427847;32;20064;-65
2021/05/21 04:29:34;;;;;;;0.20;0.20;;;12.40;99.90;;;;;;4444339;32;20123;-63
2021/05/21 04:32:02;;;;;;;0.30;0.30;;;12.50;99.90;;;;;;4445892;32;20064;-65
2021/05/21 04:34:27;;;;;;;0.43;0.43;;;12.40;99.90;;;;;;4445991;32;20069;-65
2021/05/21 04:36:53;;;;;;;0.20;0.20;;;12.40;99.90;;;;;;4444490;32;20464;-64
2021/05/21 04:39:18;;;;;;;0.30;0.30;;;12.50;99.90;;;;;;4445362;32;20405;-65
2021/05/21 04:41:44;;;;;;;0.25;0.25;;;12.50;99.90;;;;;;4445907;32;20080;-64
2021/05/21 04:44:11;;;;;;;0.55;0.55;;;12.50;99.90;;;;;;4448464;32;20076;-64
2021/05/21 04:46:37;;;;;;;0.30;0.30;;;12.50;99.90;;;;;;4445133;32;20187;-64
2021/05/21 04:49:02;;;;;;;0.40;0.40;;;12.50;99.90;;;;;;4445721;32;20490;-65
2021/05/21 04:51:28;;;;;;;0.30;0.30;;;12.50;99.90;;;;;;4446379;32;20068;-65
2021/05/21 04:53:53;;;;;;;0.40;0.40;;;12.50;99.90;;;;;;4456098;32;20651;-64
2021/05/21 04:56:19;;;;;;;0.20;0.20;;;12.70;99.90;;;;;;4460310;32;20412;-64
2021/05/21 04:58:45;;;;;;;0.30;0.30;;;12.70;99.90;;;;;;4460213;32;20163;-64
2021/05/21 05:01:10;;;;;;;0.50;0.50;;;12.80;99.90;;;;;;4441591;32;20064;-64
2021/05/21 05:03:36;;;;;;;0.30;0.30;;;12.90;99.90;;;;;;4429261;32;20589;-65
2021/05/21 05:06:01;;;;;;;0.40;0.40;;;12.90;99.90;;;;;;4454339;32;20060;-65
2021/05/21 05:08:28;;;;;;;0.52;0.50;;;12.90;99.90;;;;;;4460800;32;20068;-65
2021/05/21 05:10:53;;;;;;;0.95;0.50;;;13.00;99.90;;;;;;4459412;32;20127;-65
2021/05/21 05:13:19;;;;;;;0.88;0.57;;;13.10;99.90;;;;;;4435976;32;20565;-64
2021/05/21 05:15:45;;;;;;;0.32;0.32;;;13.10;99.90;;;;;;4429216;32;20512;-64
2021/05/21 05:18:11;;;;;;;0.30;0.30;;;13.10;99.90;;;;;;4424107;32;20068;-65
2021/05/21 05:20:37;;;;;;;0.20;0.20;;;13.10;99.90;;;;;;4431546;32;20116;-64
2021/05/21 05:23:03;;;;;;;0.22;0.22;;;13.20;99.90;;;;;;4434122;32;20130;-63
2021/05/21 05:25:29;;;;;;;0.30;0.30;;;13.20;99.90;;;;;;4440245;32;20077;-64
2021/05/21 05:27:56;;;;;;;0.50;0.50;;;13.30;99.90;;;;;;4427962;32;20135;-64
2021/05/21 05:30:24;;;;;;;5.18;1.55;;;13.30;99.90;;;;;;4413380;32;20136;-65
2021/05/21 05:32:49;;;;;;;0.28;0.28;;;13.30;99.90;;;;;;4418277;32;20086;-64
2021/05/21 05:35:15;;;;;;;0.30;0.30;;;13.40;99.90;;;;;;4437028;32;20093;-65
2021/05/21 05:37:41;;;;;;;0.25;0.25;;;13.40;99.90;;;;;;4440690;32;20081;-64
2021/05/21 05:40:09;;;;;;;0.90;0.60;;;13.50;99.90;;;;;;4431178;32;20068;-64
2021/05/21 05:42:34;;;;;;;1.15;0.52;;;13.60;99.90;;;;;;4436436;32;20150;-64
2021/05/21 05:45:00;;;;;;;0.45;0.35;;;13.80;99.90;;;;;;4439175;32;20160;-65
2021/05/21 05:47:25;;;;;;;1.00;0.57;;;13.80;99.90;;;;;;4439502;32;20143;-64
2021/05/21 05:49:51;;;;;;;0.50;0.50;;;13.90;99.90;;;;;;4442811;32;20138;-65
2021/05/21 05:52:16;;;;;;;0.30;0.30;;;14.00;99.90;;;;;;4442719;32;20123;-64
2021/05/21 05:54:43;;;;;;;10.43;2.50;;;14.10;99.90;;;;;;4437727;32;20089;-64
2021/05/21 05:57:08;;;;;;;0.43;0.43;;;14.20;99.90;;;;;;4443398;32;20533;-64
2021/05/21 05:59:35;;;;;;;0.40;0.40;;;14.30;99.90;;;;;;4439312;32;20080;-61
2021/05/21 06:02:01;;;;;;;2.05;0.68;;;14.20;99.90;;;;;;4434343;32;20085;-64
2021/05/21 06:04:27;;;;;;;0.30;0.30;;;14.30;99.90;;;;;;4430114;32;20085;-64
2021/05/21 06:06:52;;;;;;;0.40;0.40;;;14.40;99.90;;;;;;4434004;32;20488;-63
2021/05/21 06:09:18;;;;;;;0.57;0.57;;;14.50;99.90;;;;;;4436596;32;20103;-63
2021/05/21 06:11:44;;;;;;;0.30;0.30;;;14.50;99.90;;;;;;4434657;32;20089;-62
2021/05/21 06:14:09;;;;;;;0.45;0.35;;;14.60;99.90;;;;;;4434323;32;20085;-62
2021/05/21 06:16:35;;;;;;;0.40;0.40;;;14.70;99.90;;;;;;4436236;32;20064;-64
2021/05/21 06:19:00;;;;;;;0.30;0.30;;;14.80;99.90;;;;;;4436012;32;20143;-64
2021/05/21 06:21:26;;;;;;;0.30;0.30;;;15.00;99.90;;;;;;4433622;32;20073;-62
2021/05/21 06:23:52;;;;;;;0.40;0.30;;;15.00;99.90;;;;;;4435958;32;20528;-62
2021/05/21 06:26:32;;;;;;;0.30;0.30;;;15.10;99.90;;;;;;4432824;32;20653;-64
2021/05/21 06:28:57;;;;;;;3.70;1.17;;;15.20;99.90;;;;;;4434549;32;20101;-64
2021/05/21 06:31:23;;;;;;;0.28;0.28;;;15.30;99.90;;;;;;4436322;32;20062;-64
2021/05/21 06:33:49;;;;;;;0.32;0.32;;;15.50;99.90;;;;;;4435440;32;20089;-64
2021/05/21 06:36:15;;;;;;;0.40;0.40;;;15.60;99.90;;;;;;4414960;32;20847;-65
2021/05/21 06:38:41;;;;;;;0.30;0.30;;;15.50;99.90;;;;;;4434469;32;20414;-64
2021/05/21 06:41:08;;;;;;;0.50;0.40;;;15.60;99.90;;;;;;4432782;32;20571;-64
2021/05/21 06:43:34;;;;;;;0.20;0.20;;;15.60;99.90;;;;;;4431303;32;20639;-64
2021/05/21 06:46:00;;;;;;;0.28;0.28;;;15.70;99.90;;;;;;4434576;32;20489;-64
2021/05/21 06:48:29;;;;;;;0.30;0.30;;;15.90;99.90;;;;;;4429156;32;20638;-64
2021/05/21 06:50:55;;;;;;;0.55;0.43;;;15.90;99.90;;;;;;4432937;32;20081;-64
2021/05/21 06:53:22;;;;;;;0.22;0.22;;;16.00;99.90;;;;;;4433792;32;20400;-64
2021/05/21 06:55:49;;;;;;;0.30;0.30;;;16.00;99.90;;;;;;4434664;32;20084;-64
2021/05/21 06:58:15;;;;;;;0.20;0.20;;;16.10;99.90;;;;;;4435111;32;20080;-64
2021/05/21 07:00:42;;;;;;;3.83;0.88;;;16.00;99.90;;;;;;4431887;32;20065;-64
2021/05/21 07:03:08;;;;;;;0.30;0.30;;;16.00;99.90;;;;;;4431062;32;20077;-64
2021/05/21 07:05:34;;;;;;;0.20;0.20;;;16.00;99.90;;;;;;4436365;32;20081;-64
2021/05/21 07:08:00;;;;;;;0.80;0.77;;;16.00;99.90;;;;;;4432107;32;20557;-64
2021/05/21 07:10:25;;;;;;;0.40;0.40;;;16.00;99.90;;;;;;4429984;32;20077;-63
2021/05/21 07:12:51;;;;;;;0.30;0.30;;;16.00;99.90;;;;;;4434385;32;20550;-64
2021/05/21 07:15:16;;;;;;;0.20;0.20;;;16.00;99.90;;;;;;4436153;32;20771;-64
2021/05/21 07:17:42;;;;;;;0.20;0.20;;;15.90;99.90;;;;;;4431517;32;20092;-64
2021/05/21 07:20:10;;;;;;;0.20;0.20;;;16.00;99.90;;;;;;4433896;32;20554;-64
2021/05/21 07:22:38;;;;;;;0.32;0.30;;;16.00;99.90;;;;;;4433568;32;20122;-64
2021/05/21 07:25:04;;;;;;;0.30;0.30;;;16.10;99.90;;;;;;4428467;32;20104;-65
2021/05/21 07:27:29;;;;;;;0.35;0.35;;;16.20;99.90;;;;;;4434287;32;20077;-64
2021/05/21 07:29:55;;;;;;;0.20;0.20;;;16.40;99.90;;;;;;4433899;32;20126;-64
2021/05/21 07:32:20;;;;;;;0.20;0.20;;;16.40;99.90;;;;;;4435472;32;20096;-63
2021/05/21 07:34:46;;;;;;;6.12;1.25;;;16.30;99.90;;;;;;4437986;32;20089;-64
2021/05/21 07:37:11;;;;;;;0.30;0.30;;;16.40;99.90;;;;;;4440490;32;20096;-63
2021/05/21 07:39:38;;;;;;;0.28;0.28;;;16.50;99.90;;;;;;4440551;32;20130;-65
2021/05/21 07:42:03;;;;;;;0.30;0.30;;;16.70;99.90;;;;;;4434859;32;20065;-64
2021/05/21 07:44:29;;;;;;;0.30;0.30;;;16.70;99.90;;;;;;4432818;32;20189;-64
2021/05/21 07:46:55;;;;;;;0.40;0.30;;;16.80;99.90;;;;;;4440299;32;20406;-65
2021/05/21 07:49:24;;;;;;;0.20;0.20;;;17.10;99.90;;;;;;4432007;32;20061;-62
2021/05/21 07:51:51;;;;;;;0.30;0.30;;;17.00;99.90;;;;;;4434180;32;20089;-63
2021/05/21 07:54:18;;;;;;;0.30;0.30;;;17.20;99.90;;;;;;4436432;32;20169;-64
2021/05/21 07:56:43;;;;;;;0.40;0.40;;;17.30;99.90;;;;;;4434746;32;20567;-64
2021/05/21 07:59:11;;;;;;;0.30;0.30;;;17.40;99.90;;;;;;4440230;32;20089;-64
2021/05/21 08:01:37;;;;;;;0.30;0.30;;;17.60;99.90;;;;;;4434020;32;20081;-63
2021/05/21 08:04:03;;;;;;;0.30;0.30;;;17.80;99.90;;;;;;4444324;32;20114;-64
2021/05/21 08:06:28;;;;;;;0.90;0.30;;;17.70;99.90;;;;;;4442264;32;20061;-64
2021/05/21 08:08:54;;;;;;;0.20;0.20;;;17.60;99.90;;;;;;4436758;32;20084;-64
2021/05/21 08:11:19;;;;;;;0.28;0.28;;;17.80;99.90;;;;;;4438639;32;20077;-63
2021/05/21 08:13:45;;;;;;;0.30;0.30;;;18.00;99.90;;;;;;4439327;32;20097;-62
2021/05/21 08:16:12;;;;;;;0.20;0.20;;;18.10;99.90;;;;;;4435936;32;20118;-63
2021/05/21 08:18:38;;;;;;;2.37;0.30;;;18.30;99.80;;;;;;4438259;32;20073;-63
2021/05/21 08:21:04;;;;;;;0.37;0.37;;;18.40;99.20;;;;;;4439371;32;20060;-63
2021/05/21 08:23:29;;;;;;;0.22;0.22;;;18.30;99.00;;;;;;4434982;32;20084;-63
2021/05/21 08:25:55;;;;;;;0.47;0.47;;;18.30;99.00;;;;;;4444582;32;20096;-63
2021/05/21 08:28:22;;;;;;;0.20;0.20;;;18.40;98.70;;;;;;4437982;32;20089;-62
2021/05/21 08:30:47;;;;;;;0.20;0.20;;;18.70;98.90;;;;;;4435175;32;20066;-63
2021/05/21 08:33:14;;;;;;;0.40;0.40;;;18.70;98.20;;;;;;4442345;32;20073;-62
2021/05/21 08:35:40;;;;;;;0.30;0.30;;;18.80;97.60;;;;;;4440936;32;20068;-62
2021/05/21 08:38:06;;;;;;;0.30;0.30;;;18.50;97.50;;;;;;4433939;32;20124;-63
2021/05/21 08:40:36;;;;;;;2.58;1.10;;;18.20;98.10;;;;;;4447886;32;20089;-63
2021/05/21 08:43:06;;;;;;;0.55;0.55;;;18.10;98.40;;;;;;4444343;32;20068;-63
2021/05/21 08:45:31;;;;;;;0.20;0.20;;;18.00;98.50;;;;;;4442878;32;20074;-62
2021/05/21 08:47:57;;;;;;;0.40;0.40;;;18.10;98.60;;;;;;4437380;32;20463;-63
2021/05/21 08:50:24;;;;;;;0.20;0.20;;;18.40;98.00;;;;;;4426071;32;20131;-62
2021/05/21 08:52:49;;;;;;;1.50;0.57;;;18.40;97.80;;;;;;4436549;32;20500;-63
2021/05/21 08:55:16;;;;;;;1.85;0.55;;;18.60;97.50;;;;;;4428533;32;20116;-63
2021/05/21 08:57:42;;;;;;;0.20;0.20;;;18.70;96.90;;;;;;4436556;32;20141;-63
2021/05/21 09:00:09;;;;;;;0.20;0.20;;;18.80;97.10;;;;;;4440207;32;20076;-63
2021/05/21 09:02:35;;;;;;;0.28;0.28;;;18.90;97.30;;;;;;4443127;32;20065;-63
2021/05/21 09:05:02;;;;;;;0.30;0.30;;;19.00;96.70;;;;;;4438004;32;20482;-62
2021/05/21 09:07:31;;;;;;;0.30;0.30;;;18.90;96.50;;;;;;4436969;32;20252;-64
2021/05/21 09:09:58;;;;;;;0.22;0.22;;;18.50;97.10;;;;;;4441179;32;20153;-63
2021/05/21 09:12:35;;;;;;;0.20;0.20;;;18.40;97.50;;;;;;4439882;32;20068;-64
2021/05/21 09:15:21;;;;;;;2.20;1.20;;;18.60;97.30;;;;;;4445683;32;20073;-64
2021/05/21 09:18:08;;;;;;;0.20;0.20;;;18.80;96.90;;;;;;4425457;32;20073;-63
2021/05/21 09:20:38;;;;;;;0.20;0.20;;;19.00;97.20;;;;;;4429870;32;20065;-63
2021/05/21 09:23:08;;;;;;;0.20;0.20;;;19.00;95.60;;;;;;4437007;32;20072;-64
2021/05/21 09:25:39;;;;;;;0.60;0.60;;;19.00;96.10;;;;;;4438584;32;20424;-62
2021/05/21 09:28:05;;;;;;;;;;;19.10;93.90;;;;;;4442086;32;20141;-63
2021/05/21 09:30:31;;;;;;;0.20;0.20;;;19.30;93.80;;;;;;4436422;32;19941;-62
2021/05/21 09:33:05;;;;;;;0.20;0.20;;;19.30;94.30;;;;;;4426274;32;20120;-63
2021/05/21 09:35:31;;;;;;;0.30;0.30;;;19.10;94.90;;;;;;4415333;32;20565;-63
2021/05/21 09:37:57;;;;;;;0.30;0.30;;;19.10;95.10;;;;;;4439202;32;20072;-61
2021/05/21 09:40:25;;;;;;;2.60;0.73;;;19.10;94.80;;;;;;4440685;32;73028;-63
2021/05/21 09:42:54;;;;;;;0.30;0.30;;;18.90;94.80;;;;;;4439938;32;20546;-63
2021/05/21 09:45:27;;;;;;;0.20;0.20;;;18.80;95.30;;;;;;4437786;32;20127;-63
2021/05/21 09:47:56;;;;;;;0.47;0.47;;;18.70;94.90;;;;;;4435068;32;20550;-63
2021/05/21 09:50:41;;;;;;;0.30;0.30;;;18.90;94.50;;;;;;4436080;32;20052;-63
2021/05/21 09:53:10;;;;;;;0.30;0.30;;;18.90;93.30;;;;;;4433739;32;20084;-63
2021/05/21 09:55:39;;;;;;;0.20;0.20;;;18.90;93.10;;;;;;4437615;32;20585;-63
2021/05/21 09:58:05;;;;;;;0.30;0.30;;;18.90;92.50;;;;;;4440661;32;20062;-63
2021/05/21 10:00:31;;;;;;;0.30;0.30;;;18.90;92.30;;;;;;4435921;32;20061;-62
2021/05/21 10:02:59;;;;;;;0.20;0.20;;;19.20;92.00;;;;;;4427407;32;20089;-63
2021/05/21 10:05:25;;;;;;;6.35;0.57;;;19.30;90.80;;;;;;4434799;32;20136;-63
2021/05/21 10:07:52;;;;;;;3.83;0.85;;;19.50;88.70;;;;;;4442547;32;20066;-63
2021/05/21 10:10:23;;;;;;;4.03;0.30;;;19.70;87.60;;;;;;4440774;32;20096;-63
2021/05/21 10:12:48;;;;;;;0.30;0.30;;;19.60;86.70;;;;;;4442067;32;20443;-63
2021/05/21 10:15:14;;;;;;;0.25;0.25;;;19.80;87.10;;;;;;4444330;32;20093;-63
2021/05/21 10:17:41;;;;;;;0.30;0.30;;;20.00;87.10;;;;;;4442418;32;20157;-63
2021/05/21 10:20:08;;;;;;;0.37;0.37;;;20.10;86.60;;;;;;4436147;32;20076;-62
2021/05/21 10:22:37;;;;;;;0.40;0.40;;;20.00;85.80;;;;;;4434542;32;20085;-63
2021/05/21 10:25:07;;;;;;;27.33;0.47;;;19.80;86.10;;;;;;4442993;32;20175;-62
2021/05/21 10:27:36;;;;;;;0.30;0.30;;;19.90;86.70;;;;;;4446159;32;20073;-62
2021/05/21 10:30:05;;;;;;;0.20;0.20;;;19.80;86.00;;;;;;4435414;32;20069;-62
2021/05/21 10:32:31;;;;;;;1.08;0.55;;;19.80;86.90;;;;;;4433569;32;20076;-62
2021/05/21 10:34:59;;;;;;;0.20;0.20;;;20.00;86.60;;;;;;4436427;32;20152;-62
2021/05/21 10:37:28;;;;;;;0.25;0.25;;;20.20;85.50;;;;;;4455100;32;20541;-62
2021/05/21 10:39:58;;;;;;;0.37;0.37;;;20.10;84.10;;;;;;4445195;32;20061;-61
2021/05/21 10:42:24;;;;;;;0.20;0.20;;;20.20;85.50;;;;;;4447612;32;20089;-62
2021/05/21 10:44:51;;;;;;;0.20;0.20;;;20.50;81.70;;;;;;4442198;32;20072;-62
2021/05/21 10:47:23;;;;;;;0.30;0.30;;;20.70;82.00;;;;;;4437652;32;20680;-62
2021/05/21 10:49:52;;;;;;;0.20;0.20;;;20.80;81.50;;;;;;4442188;32;20090;-62
2021/05/21 10:52:21;;;;;;;0.40;0.40;;;20.80;80.40;;;;;;4443616;32;20181;-62
2021/05/21 10:54:51;;;;;;;0.30;0.20;;;20.90;78.70;;;;;;4441976;32;20390;-61
2021/05/21 10:57:19;;;;;;;0.37;0.37;;;21.20;77.20;;;;;;4440379;32;20130;-62
2021/05/21 10:59:56;;;;;;;2.30;0.93;;;21.50;77.60;;;;;;4446669;32;20521;-62
2021/05/21 11:02:26;;;;;;;1.95;1.15;;;21.80;75.20;;;;;;4437130;32;20139;-62
2021/05/21 11:04:54;;;;;;;0.20;0.20;;;21.80;75.60;;;;;;4438436;32;20561;-62
2021/05/21 11:07:40;;;;;;;0.20;0.20;;;21.40;76.00;;;;;;4442434;32;20523;-62
2021/05/21 11:10:07;;;;;;;0.40;0.40;;;21.00;76.40;;;;;;4431223;32;20478;-62
2021/05/21 11:12:58;;;;;;;0.30;0.30;;;21.30;76.90;;;;;;4440990;32;20497;-62
2021/05/21 11:15:40;;;;;;;;;;;21.00;77.50;;;;;;4438709;32;20062;-63
2021/05/21 11:18:10;;;;;;;1.02;0.45;;;21.10;77.70;;;;;;4440647;32;20055;-62
2021/05/21 11:20:58;;;;;;;0.30;0.30;;;21.40;77.60;;;;;;4442797;32;20049;-63
2021/05/21 11:23:29;;;;;;;0.20;0.20;;;21.40;77.10;;;;;;4436477;32;20065;-62
2021/05/21 11:26:04;;;;;;;0.28;0.28;;;21.30;77.30;;;;;;4437538;32;20084;-61
2021/05/21 11:28:33;;;;;;;0.80;0.40;;;21.40;77.00;;;;;;4443580;32;20057;-62
2021/05/21 11:30:58;;;;;;;0.20;0.20;;;21.30;78.00;;;;;;4441892;32;20055;-62
2021/05/21 11:33:24;;;;;;;0.20;0.20;;;21.50;76.80;;;;;;4434493;32;20090;-61
2021/05/21 11:35:54;;;;;;;0.40;0.40;;;21.50;76.30;;;;;;4439036;32;20156;-62
2021/05/21 11:38:25;;;;;;;0.40;0.33;;;22.00;74.00;;;;;;4430880;32;20557;-61
2021/05/21 11:40:50;;;;;;;0.20;0.20;;;22.40;72.60;;;;;;4441360;32;20077;-61
2021/05/21 11:43:22;;;;;;;0.22;0.22;;;23.00;71.50;;;;;;4440873;32;20410;-61
2021/05/21 11:45:51;;;;;;;0.98;0.50;;;23.50;70.10;;;;;;4439804;32;20746;-62
2021/05/21 11:48:31;;;;;;;1.35;0.88;;;23.00;71.10;;;;;;4436807;32;20101;-63
2021/05/21 11:50:56;;;;;;;1.10;0.32;;;22.60;72.60;;;;;;4442575;32;20077;-62
2021/05/21 11:53:23;;;;;;;0.10;0.10;;;23.00;71.30;;;;;;4441750;32;20677;-62
2021/05/21 11:55:49;;;;;;;0.17;0.10;;;23.30;70.00;;;;;;4450013;32;20076;-62
2021/05/21 11:58:24;;;;;;;0.40;0.40;;;23.30;70.00;;;;;;4435680;32;20168;-61
2021/05/21 12:01:00;;;;;;;0.20;0.20;;;22.90;70.40;;;;;;4443146;32;20478;-62
2021/05/21 12:03:38;;;;;;;0.40;0.40;;;22.60;72.30;;;;;;4433538;32;20069;-62
2021/05/21 12:06:05;;;;;;;0.20;0.20;;;22.80;70.80;;;;;;4452016;32;20405;-62
2021/05/21 12:08:31;;;;;;;0.20;0.20;;;22.80;70.80;;;;;;4424283;32;20119;-61
2021/05/21 12:10:58;;;;;;;0.30;0.30;;;22.80;68.20;;;;;;4445737;32;20077;-62
2021/05/21 12:13:29;;;;;;;0.30;0.30;;;22.20;68.10;;;;;;4439542;32;20632;-63
2021/05/21 12:16:08;;;;;;;3.25;1.30;;;22.40;67.40;;;;;;4429439;32;20057;-62
2021/05/21 12:18:33;;;;;;;1.75;0.93;;;22.30;66.80;;;;;;4440816;32;20077;-63
2021/05/21 12:20:59;;;;;;;0.20;0.20;;;22.20;67.50;;;;;;4439046;32;20061;-63
2021/05/21 12:23:38;;;;;;;2.05;1.20;;;22.60;67.60;;;;;;4442590;32;20065;-63
2021/05/21 12:26:04;;;;;;;0.50;0.50;;;22.90;68.50;;;;;;4441629;32;20582;-63
2021/05/21 12:28:31;;;;;;;0.45;0.20;;;23.70;68.30;;;;;;4443036;32;20085;-63
2021/05/21 12:31:02;;;;;;;0.20;0.20;;;24.40;66.70;;;;;;4438838;32;20089;-63
2021/05/21 12:33:29;;;;;;;0.10;0.10;;;24.30;66.00;;;;;;4436081;32;20102;-63
2021/05/21 12:36:05;;;;;;;0.10;0.10;;;24.50;64.80;;;;;;4434293;32;20073;-63
2021/05/21 12:38:31;;;;;;;0.20;0.20;;;23.80;65.60;;;;;;4439888;32;20092;-62
2021/05/21 12:40:58;;;;;;;0.10;0.10;;;22.60;68.40;;;;;;4451420;32;20135;-64
2021/05/21 12:43:26;;;;;;;0.22;0.22;;;22.40;69.00;;;;;;4437486;32;20096;-66
2021/05/21 12:45:53;;;;;;;0.20;0.20;;;22.10;69.40;;;;;;4427565;32;20346;-65
2021/05/21 12:48:19;;;;;;;0.20;0.20;;;21.80;69.30;;;;;;4433259;32;20072;-65